sensor_id;sensor_type;location;lat;lon;timestamp;temperature;humidity
15638;DHT22;26604;53.596;10.042;2023-08-12T00:01:54;18.90;99.90
15638;DHT22;26604;53.596;10.042;2023-08-12T00:04:20;18.90;99.90
15638;DHT22;26604;53.596;10.042;2023-08-12T00:06:50;18.80;99.90
15638;DHT22;26604;53.596;10.042;2023-08-12T00:09:17;18.80;99.90
15638;DHT22;26604;53.596;10.042;2023-08-12T00:11:44;18.90;99.90
15638;DHT22;26604;53.596;10.042;2023-08-12T00:14:11;18.90;99.90
15638;DHT22;26604;53.596;10.042;2023-08-12T00:16:39;18.80;99.90
15638;DHT22;26604;53.596;10.042;2023-08-12T00:19:06;18.80;99.90
15638;DHT22;26604;53.596;10.042;2023-08-12T00:21:33;18.80;99.90
15638;DHT22;26604;53.596;10.042;2023-08-12T00:24:00;18.80;99.90
15638;DHT22;26604;53.596;10.042;2023-08-12T00:26:27;18.80;99.90
15638;DHT22;26604;53.596;10.042;2023-08-12T00:28:56;18.80;99.90
15638;DHT22;26604;53.596;10.042;2023-08-12T00:31:22;18.70;99.90
15638;DHT22;26604;53.596;10.042;2023-08-12T00:33:51;18.70;99.90
15638;DHT22;26604;53.596;10.042;2023-08-12T00:36:18;18.70;99.90
15638;DHT22;26604;53.596;10.042;2023-08-12T00:38:44;18.70;99.90
15638;DHT22;26604;53.596;10.042;2023-08-12T00:41:11;18.70;99.90
15638;DHT22;26604;53.596;10.042;2023-08-12T00:43:38;18.70;99.90
15638;DHT22;26604;53.596;10.042;2023-08-12T00:46:05;18.70;99.90
15638;DHT22;26604;53.596;10.042;2023-08-12T00:48:32;18.70;99.90
15638;DHT22;26604;53.596;10.042;2023-08-12T00:51:01;18.70;99.90
15638;DHT22;26604;53.596;10.042;2023-08-12T00:53:28;18.70;99.90
15638;DHT22;26604;53.596;10.042;2023-08-12T00:55:55;18.70;99.90
15638;DHT22;26604;53.596;10.042;2023-08-12T00:58:22;18.70;99.90
15638;DHT22;26604;53.596;10.042;2023-08-12T01:00:49;18.70;99.90
15638;DHT22;26604;53.596;10.042;2023-08-12T01:03:16;18.70;99.90
15638;DHT22;26604;53.596;10.042;2023-08-12T01:05:44;18.70;99.90
15638;DHT22;26604;53.596;10.042;2023-08-12T01:08:16;18.70;99.90
15638;DHT22;26604;53.596;10.042;2023-08-12T01:10:49;18.70;99.90
15638;DHT22;26604;53.596;10.042;2023-08-12T01:13:25;18.70;99.90
15638;DHT22;26604;53.596;10.042;2023-08-12T01:15:59;18.70;99.90
15638;DHT22;26604;53.596;10.042;2023-08-12T01:18:28;18.70;99.90
15638;DHT22;26604;53.596;10.042;2023-08-12T01:20:59;18.70;99.90
15638;DHT22;26604;53.596;10.042;2023-08-12T01:23:32;18.70;99.90
15638;DHT22;26604;53.596;10.042;2023-08-12T01:25:59;18.70;99.90
15638;DHT22;26604;53.596;10.042;2023-08-12T01:28:26;18.70;99.90
15638;DHT22;26604;53.596;10.042;2023-08-12T01:30:57;18.70;99.90
15638;DHT22;26604;53.596;10.042;2023-08-12T01:33:30;18.70;99.90
15638;DHT22;26604;53.596;10.042;2023-08-12T01:36:05;18.70;99.90
15638;DHT22;26604;53.596;10.042;2023-08-12T01:38:38;18.70;99.90
15638;DHT22;26604;53.596;10.042;2023-08-12T01:41:08;18.70;99.90
15638;DHT22;26604;53.596;10.042;2023-08-12T01:43:36;18.70;99.90
15638;DHT22;26604;53.596;10.042;2023-08-12T01:46:03;18.70;99.90
15638;DHT22;26604;53.596;10.042;2023-08-12T01:48:30;18.70;99.90
15638;DHT22;26604;53.596;10.042;2023-08-12T01:50:57;18.60;99.90
15638;DHT22;26604;53.596;10.042;2023-08-12T01:53:24;18.60;99.90
15638;DHT22;26604;53.596;10.042;2023-08-12T01:55:52;18.60;99.90
15638;DHT22;26604;53.596;10.042;2023-08-12T01:58:20;18.60;99.90
15638;DHT22;26604;53.596;10.042;2023-08-12T02:00:46;18.60;99.90
15638;DHT22;26604;53.596;10.042;2023-08-12T02:03:12;18.70;99.90
15638;DHT22;26604;53.596;10.042;2023-08-12T02:05:39;18.60;99.90
15638;DHT22;26604;53.596;10.042;2023-08-12T02:08:06;18.60;99.90
15638;DHT22;26604;53.596;10.042;2023-08-12T02:10:34;18.60;99.90
15638;DHT22;26604;53.596;10.042;2023-08-12T02:13:02;18.70;99.90
15638;DHT22;26604;53.596;10.042;2023-08-12T02:15:29;18.60;99.90
15638;DHT22;26604;53.596;10.042;2023-08-12T02:17:56;18.60;99.90
15638;DHT22;26604;53.596;10.042;2023-08-12T02:20:24;18.60;99.90
15638;DHT22;26604;53.596;10.042;2023-08-12T02:22:51;18.50;99.90
15638;DHT22;26604;53.596;10.042;2023-08-12T02:25:18;18.50;99.90
15638;DHT22;26604;53.596;10.042;2023-08-12T02:27:45;18.50;99.90
15638;DHT22;26604;53.596;10.042;2023-08-12T02:30:13;18.40;99.90
15638;DHT22;26604;53.596;10.042;2023-08-12T02:32:40;18.40;99.90
15638;DHT22;26604;53.596;10.042;2023-08-12T02:35:09;18.30;99.90
15638;DHT22;26604;53.596;10.042;2023-08-12T02:37:36;18.30;99.90
15638;DHT22;26604;53.596;10.042;2023-08-12T02:40:04;18.30;99.90
15638;DHT22;26604;53.596;10.042;2023-08-12T02:42:31;18.30;99.90
15638;DHT22;26604;53.596;10.042;2023-08-12T02:44:58;18.20;99.90
15638;DHT22;26604;53.596;10.042;2023-08-12T02:47:27;18.20;99.90
15638;DHT22;26604;53.596;10.042;2023-08-12T02:49:54;18.20;99.90
15638;DHT22;26604;53.596;10.042;2023-08-12T02:52:21;18.20;99.90
15638;DHT22;26604;53.596;10.042;2023-08-12T02:54:47;18.20;99.90
15638;DHT22;26604;53.596;10.042;2023-08-12T02:57:14;18.20;99.90
15638;DHT22;26604;53.596;10.042;2023-08-12T02:59:41;18.20;99.90
15638;DHT22;26604;53.596;10.042;2023-08-12T03:02:08;18.20;99.90
15638;DHT22;26604;53.596;10.042;2023-08-12T03:04:37;18.20;99.90
15638;DHT22;26604;53.596;10.042;2023-08-12T03:07:04;18.20;99.90
15638;DHT22;26604;53.596;10.042;2023-08-12T03:09:30;18.20;99.90
15638;DHT22;26604;53.596;10.042;2023-08-12T03:11:57;18.20;99.90
15638;DHT22;26604;53.596;10.042;2023-08-12T03:14:27;18.20;99.90
15638;DHT22;26604;53.596;10.042;2023-08-12T03:16:57;18.30;99.90
15638;DHT22;26604;53.596;10.042;2023-08-12T03:19:24;18.30;99.90
15638;DHT22;26604;53.596;10.042;2023-08-12T03:21:52;18.30;99.90
15638;DHT22;26604;53.596;10.042;2023-08-12T03:24:32;18.20;99.90
15638;DHT22;26604;53.596;10.042;2023-08-12T03:26:59;18.20;99.90
15638;DHT22;26604;53.596;10.042;2023-08-12T03:29:26;18.20;99.90
15638;DHT22;26604;53.596;10.042;2023-08-12T03:31:53;18.20;99.90
15638;DHT22;26604;53.596;10.042;2023-08-12T03:34:20;18.20;99.90
15638;DHT22;26604;53.596;10.042;2023-08-12T03:36:46;18.20;99.90
15638;DHT22;26604;53.596;10.042;2023-08-12T03:39:15;18.00;99.90
15638;DHT22;26604;53.596;10.042;2023-08-12T03:41:42;18.20;99.90
15638;DHT22;26604;53.596;10.042;2023-08-12T03:44:12;18.10;99.90
15638;DHT22;26604;53.596;10.042;2023-08-12T03:46:39;18.10;99.90
15638;DHT22;26604;53.596;10.042;2023-08-12T03:49:06;18.00;99.90
15638;DHT22;26604;53.596;10.042;2023-08-12T03:51:33;18.00;99.90
15638;DHT22;26604;53.596;10.042;2023-08-12T03:54:00;17.90;99.90
15638;DHT22;26604;53.596;10.042;2023-08-12T03:56:28;18.00;99.90
15638;DHT22;26604;53.596;10.042;2023-08-12T03:58:55;17.90;99.90
15638;DHT22;26604;53.596;10.042;2023-08-12T04:01:24;17.90;99.90
15638;DHT22;26604;53.596;10.042;2023-08-12T04:03:51;17.90;99.90
15638;DHT22;26604;53.596;10.042;2023-08-12T04:06:18;17.90;99.90
15638;DHT22;26604;53.596;10.042;2023-08-12T04:08:45;17.90;99.90
15638;DHT22;26604;53.596;10.042;2023-08-12T04:11:14;17.90;99.90
15638;DHT22;26604;53.596;10.042;2023-08-12T04:13:42;17.90;99.90
15638;DHT22;26604;53.596;10.042;2023-08-12T04:16:09;17.90;99.90
15638;DHT22;26604;53.596;10.042;2023-08-12T04:18:36;17.90;99.90
15638;DHT22;26604;53.596;10.042;2023-08-12T04:21:03;18.00;99.90
15638;DHT22;26604;53.596;10.042;2023-08-12T04:23:30;18.00;99.90
15638;DHT22;26604;53.596;10.042;2023-08-12T04:25:57;18.00;99.90
15638;DHT22;26604;53.596;10.042;2023-08-12T04:28:23;18.00;99.90
15638;DHT22;26604;53.596;10.042;2023-08-12T04:30:52;18.00;99.90
15638;DHT22;26604;53.596;10.042;2023-08-12T04:33:19;18.00;99.90
15638;DHT22;26604;53.596;10.042;2023-08-12T04:35:46;18.10;99.90
15638;DHT22;26604;53.596;10.042;2023-08-12T04:38:13;18.10;99.90
15638;DHT22;26604;53.596;10.042;2023-08-12T04:40:41;18.10;99.90
15638;DHT22;26604;53.596;10.042;2023-08-12T04:43:09;18.10;99.90
15638;DHT22;26604;53.596;10.042;2023-08-12T04:45:36;18.10;99.90
15638;DHT22;26604;53.596;10.042;2023-08-12T04:48:06;18.20;99.90
15638;DHT22;26604;53.596;10.042;2023-08-12T04:50:33;18.20;99.90
15638;DHT22;26604;53.596;10.042;2023-08-12T04:53:00;18.20;99.90
15638;DHT22;26604;53.596;10.042;2023-08-12T04:55:27;18.20;99.90
15638;DHT22;26604;53.596;10.042;2023-08-12T04:57:56;18.20;99.90
15638;DHT22;26604;53.596;10.042;2023-08-12T05:00:23;18.20;99.90
15638;DHT22;26604;53.596;10.042;2023-08-12T05:02:50;18.30;99.90
15638;DHT22;26604;53.596;10.042;2023-08-12T05:05:18;18.30;99.90
15638;DHT22;26604;53.596;10.042;2023-08-12T05:07:45;18.40;99.90
15638;DHT22;26604;53.596;10.042;2023-08-12T05:10:14;18.40;99.90
15638;DHT22;26604;53.596;10.042;2023-08-12T05:12:42;18.50;99.90
15638;DHT22;26604;53.596;10.042;2023-08-12T05:15:09;18.50;99.90
15638;DHT22;26604;53.596;10.042;2023-08-12T05:17:36;18.60;99.90
15638;DHT22;26604;53.596;10.042;2023-08-12T05:20:04;18.60;99.90
15638;DHT22;26604;53.596;10.042;2023-08-12T05:22:32;18.60;99.90
15638;DHT22;26604;53.596;10.042;2023-08-12T05:24:59;18.70;99.90
15638;DHT22;26604;53.596;10.042;2023-08-12T05:27:26;18.80;99.90
15638;DHT22;26604;53.596;10.042;2023-08-12T05:29:53;18.80;99.90
15638;DHT22;26604;53.596;10.042;2023-08-12T05:32:22;18.90;99.90
15638;DHT22;26604;53.596;10.042;2023-08-12T05:34:52;18.90;99.90
15638;DHT22;26604;53.596;10.042;2023-08-12T05:37:19;18.90;99.90
15638;DHT22;26604;53.596;10.042;2023-08-12T05:39:47;18.90;99.90
15638;DHT22;26604;53.596;10.042;2023-08-12T05:42:14;18.90;99.90
15638;DHT22;26604;53.596;10.042;2023-08-12T05:44:41;18.90;99.90
15638;DHT22;26604;53.596;10.042;2023-08-12T05:47:08;18.80;99.90
15638;DHT22;26604;53.596;10.042;2023-08-12T05:49:35;18.80;99.90
15638;DHT22;26604;53.596;10.042;2023-08-12T05:52:02;18.90;99.90
15638;DHT22;26604;53.596;10.042;2023-08-12T05:54:29;18.90;99.90
15638;DHT22;26604;53.596;10.042;2023-08-12T05:56:58;18.90;99.90
15638;DHT22;26604;53.596;10.042;2023-08-12T05:59:25;19.00;99.90
15638;DHT22;26604;53.596;10.042;2023-08-12T06:01:51;19.00;99.90
15638;DHT22;26604;53.596;10.042;2023-08-12T06:04:18;19.10;99.90
15638;DHT22;26604;53.596;10.042;2023-08-12T06:06:45;19.20;99.90
15638;DHT22;26604;53.596;10.042;2023-08-12T06:09:12;19.20;99.90
15638;DHT22;26604;53.596;10.042;2023-08-12T06:11:39;19.30;99.90
15638;DHT22;26604;53.596;10.042;2023-08-12T06:14:09;19.30;99.90
15638;DHT22;26604;53.596;10.042;2023-08-12T06:16:36;19.30;99.90
15638;DHT22;26604;53.596;10.042;2023-08-12T06:19:03;19.30;99.90
15638;DHT22;26604;53.596;10.042;2023-08-12T06:21:30;19.30;99.90
15638;DHT22;26604;53.596;10.042;2023-08-12T06:23:59;19.30;99.90
15638;DHT22;26604;53.596;10.042;2023-08-12T06:26:27;19.30;99.90
15638;DHT22;26604;53.596;10.042;2023-08-12T06:28:54;19.20;99.90
15638;DHT22;26604;53.596;10.042;2023-08-12T06:31:22;19.10;99.90
15638;DHT22;26604;53.596;10.042;2023-08-12T06:33:49;19.10;99.90
15638;DHT22;26604;53.596;10.042;2023-08-12T06:36:15;19.10;99.90
15638;DHT22;26604;53.596;10.042;2023-08-12T06:38:42;19.00;99.90
15638;DHT22;26604;53.596;10.042;2023-08-12T06:41:09;19.00;99.90
15638;DHT22;26604;53.596;10.042;2023-08-12T06:43:36;19.00;99.90
15638;DHT22;26604;53.596;10.042;2023-08-12T06:46:03;18.90;99.90
15638;DHT22;26604;53.596;10.042;2023-08-12T06:48:31;18.90;99.90
15638;DHT22;26604;53.596;10.042;2023-08-12T06:50:58;18.90;99.90
15638;DHT22;26604;53.596;10.042;2023-08-12T06:53:25;18.90;99.90
15638;DHT22;26604;53.596;10.042;2023-08-12T06:55:52;18.90;99.90
15638;DHT22;26604;53.596;10.042;2023-08-12T06:58:20;19.00;99.90
15638;DHT22;26604;53.596;10.042;2023-08-12T07:00:47;19.10;99.90
15638;DHT22;26604;53.596;10.042;2023-08-12T07:03:14;19.20;99.90
15638;DHT22;26604;53.596;10.042;2023-08-12T07:05:42;19.30;99.90
15638;DHT22;26604;53.596;10.042;2023-08-12T07:08:09;19.50;99.90
15638;DHT22;26604;53.596;10.042;2023-08-12T07:10:37;19.60;99.90
15638;DHT22;26604;53.596;10.042;2023-08-12T07:13:04;19.70;99.90
15638;DHT22;26604;53.596;10.042;2023-08-12T07:15:36;19.80;99.90
15638;DHT22;26604;53.596;10.042;2023-08-12T07:18:03;19.90;99.90
15638;DHT22;26604;53.596;10.042;2023-08-12T07:20:30;20.10;99.90
15638;DHT22;26604;53.596;10.042;2023-08-12T07:22:59;20.30;99.90
15638;DHT22;26604;53.596;10.042;2023-08-12T07:25:27;20.40;99.90
15638;DHT22;26604;53.596;10.042;2023-08-12T07:27:53;20.50;99.90
15638;DHT22;26604;53.596;10.042;2023-08-12T07:30:20;20.70;99.90
15638;DHT22;26604;53.596;10.042;2023-08-12T07:32:47;20.90;99.90
15638;DHT22;26604;53.596;10.042;2023-08-12T07:35:14;21.10;99.90
15638;DHT22;26604;53.596;10.042;2023-08-12T07:37:41;21.20;99.90
15638;DHT22;26604;53.596;10.042;2023-08-12T07:40:10;21.30;99.90
15638;DHT22;26604;53.596;10.042;2023-08-12T07:42:38;21.40;99.90
15638;DHT22;26604;53.596;10.042;2023-08-12T07:45:06;21.60;99.90
15638;DHT22;26604;53.596;10.042;2023-08-12T07:47:34;21.90;99.90
15638;DHT22;26604;53.596;10.042;2023-08-12T07:50:01;22.10;99.90
15638;DHT22;26604;53.596;10.042;2023-08-12T07:52:28;22.30;99.90
15638;DHT22;26604;53.596;10.042;2023-08-12T07:54:55;22.50;99.90
15638;DHT22;26604;53.596;10.042;2023-08-12T07:57:23;22.70;99.90
15638;DHT22;26604;53.596;10.042;2023-08-12T07:59:50;23.00;99.90
15638;DHT22;26604;53.596;10.042;2023-08-12T08:02:19;23.20;99.90
15638;DHT22;26604;53.596;10.042;2023-08-12T08:04:46;23.30;99.90
15638;DHT22;26604;53.596;10.042;2023-08-12T08:07:14;23.40;99.90
15638;DHT22;26604;53.596;10.042;2023-08-12T08:09:42;23.50;99.90
15638;DHT22;26604;53.596;10.042;2023-08-12T08:12:09;23.50;99.90
15638;DHT22;26604;53.596;10.042;2023-08-12T08:14:37;23.50;99.90
15638;DHT22;26604;53.596;10.042;2023-08-12T08:17:04;23.60;99.90
15638;DHT22;26604;53.596;10.042;2023-08-12T08:19:31;23.60;99.90
15638;DHT22;26604;53.596;10.042;2023-08-12T08:21:58;23.70;99.90
15638;DHT22;26604;53.596;10.042;2023-08-12T08:24:25;23.80;99.90
15638;DHT22;26604;53.596;10.042;2023-08-12T08:26:52;23.90;99.90
15638;DHT22;26604;53.596;10.042;2023-08-12T08:29:19;24.10;99.90
15638;DHT22;26604;53.596;10.042;2023-08-12T08:31:47;24.20;99.90
15638;DHT22;26604;53.596;10.042;2023-08-12T08:34:15;24.20;99.90
15638;DHT22;26604;53.596;10.042;2023-08-12T08:36:44;24.20;99.90
15638;DHT22;26604;53.596;10.042;2023-08-12T08:39:11;24.20;99.90
15638;DHT22;26604;53.596;10.042;2023-08-12T08:41:40;24.30;99.90
15638;DHT22;26604;53.596;10.042;2023-08-12T08:44:08;24.40;99.90
15638;DHT22;26604;53.596;10.042;2023-08-12T08:46:35;24.40;99.90
15638;DHT22;26604;53.596;10.042;2023-08-12T08:49:04;24.40;99.90
15638;DHT22;26604;53.596;10.042;2023-08-12T08:51:32;24.40;99.90
15638;DHT22;26604;53.596;10.042;2023-08-12T08:53:59;24.60;99.90
15638;DHT22;26604;53.596;10.042;2023-08-12T08:56:28;24.70;99.90
15638;DHT22;26604;53.596;10.042;2023-08-12T08:58:55;25.00;99.90
15638;DHT22;26604;53.596;10.042;2023-08-12T09:01:23;25.20;99.90
15638;DHT22;26604;53.596;10.042;2023-08-12T09:03:51;25.40;99.90
15638;DHT22;26604;53.596;10.042;2023-08-12T09:06:21;25.60;99.90
15638;DHT22;26604;53.596;10.042;2023-08-12T09:08:51;25.60;99.90
15638;DHT22;26604;53.596;10.042;2023-08-12T09:11:21;25.60;99.90
15638;DHT22;26604;53.596;10.042;2023-08-12T09:13:48;25.50;99.90
15638;DHT22;26604;53.596;10.042;2023-08-12T09:16:15;25.50;99.90
15638;DHT22;26604;53.596;10.042;2023-08-12T09:18:43;25.60;99.90
15638;DHT22;26604;53.596;10.042;2023-08-12T09:21:10;25.60;99.90
15638;DHT22;26604;53.596;10.042;2023-08-12T09:23:39;25.60;99.90
15638;DHT22;26604;53.596;10.042;2023-08-12T09:26:17;25.50;99.90
15638;DHT22;26604;53.596;10.042;2023-08-12T09:28:44;25.40;99.90
15638;DHT22;26604;53.596;10.042;2023-08-12T09:31:22;25.30;99.90
15638;DHT22;26604;53.596;10.042;2023-08-12T09:33:49;25.20;99.90
15638;DHT22;26604;53.596;10.042;2023-08-12T09:36:16;25.20;99.90
15638;DHT22;26604;53.596;10.042;2023-08-12T09:38:45;25.20;99.90
15638;DHT22;26604;53.596;10.042;2023-08-12T09:41:12;25.20;99.90
15638;DHT22;26604;53.596;10.042;2023-08-12T09:43:40;25.10;99.90
15638;DHT22;26604;53.596;10.042;2023-08-12T09:46:11;25.00;99.90
15638;DHT22;26604;53.596;10.042;2023-08-12T09:48:39;24.80;99.90
15638;DHT22;26604;53.596;10.042;2023-08-12T09:51:06;24.60;99.90
15638;DHT22;26604;53.596;10.042;2023-08-12T09:53:33;24.60;99.90
15638;DHT22;26604;53.596;10.042;2023-08-12T09:56:07;24.50;99.90
15638;DHT22;26604;53.596;10.042;2023-08-12T09:58:36;24.50;99.90
15638;DHT22;26604;53.596;10.042;2023-08-12T10:01:03;24.40;99.90
15638;DHT22;26604;53.596;10.042;2023-08-12T10:03:33;24.40;99.90
15638;DHT22;26604;53.596;10.042;2023-08-12T10:06:02;24.30;99.90
15638;DHT22;26604;53.596;10.042;2023-08-12T10:08:29;24.30;99.90
15638;DHT22;26604;53.596;10.042;2023-08-12T10:10:56;24.30;99.90
15638;DHT22;26604;53.596;10.042;2023-08-12T10:13:25;24.30;99.90
15638;DHT22;26604;53.596;10.042;2023-08-12T10:15:52;24.20;99.90
15638;DHT22;26604;53.596;10.042;2023-08-12T10:18:22;24.20;99.90
15638;DHT22;26604;53.596;10.042;2023-08-12T10:20:51;24.20;99.90
15638;DHT22;26604;53.596;10.042;2023-08-12T10:23:21;24.20;99.90
15638;DHT22;26604;53.596;10.042;2023-08-12T10:25:49;24.30;99.90
15638;DHT22;26604;53.596;10.042;2023-08-12T10:28:19;24.40;99.90
15638;DHT22;26604;53.596;10.042;2023-08-12T10:30:48;24.50;99.90
15638;DHT22;26604;53.596;10.042;2023-08-12T10:33:15;24.60;99.90
15638;DHT22;26604;53.596;10.042;2023-08-12T10:35:45;24.60;99.90
15638;DHT22;26604;53.596;10.042;2023-08-12T10:38:20;24.90;99.90
15638;DHT22;26604;53.596;10.042;2023-08-12T10:40:47;25.10;99.90
15638;DHT22;26604;53.596;10.042;2023-08-12T10:43:14;25.30;99.90
15638;DHT22;26604;53.596;10.042;2023-08-12T10:45:49;25.40;99.90
15638;DHT22;26604;53.596;10.042;2023-08-12T10:48:21;25.40;99.90
15638;DHT22;26604;53.596;10.042;2023-08-12T10:50:52;25.30;99.90
15638;DHT22;26604;53.596;10.042;2023-08-12T10:53:22;25.10;99.90
15638;DHT22;26604;53.596;10.042;2023-08-12T10:55:49;25.10;99.90
15638;DHT22;26604;53.596;10.042;2023-08-12T10:58:25;25.20;99.90
15638;DHT22;26604;53.596;10.042;2023-08-12T11:00:54;25.40;99.90
15638;DHT22;26604;53.596;10.042;2023-08-12T11:03:22;25.60;99.90
15638;DHT22;26604;53.596;10.042;2023-08-12T11:05:49;25.90;99.90
15638;DHT22;26604;53.596;10.042;2023-08-12T11:08:16;26.20;99.90
15638;DHT22;26604;53.596;10.042;2023-08-12T11:10:49;26.50;99.90
15638;DHT22;26604;53.596;10.042;2023-08-12T11:13:15;26.80;99.90
15638;DHT22;26604;53.596;10.042;2023-08-12T11:15:44;27.10;99.90
15638;DHT22;26604;53.596;10.042;2023-08-12T11:18:15;27.30;99.90
15638;DHT22;26604;53.596;10.042;2023-08-12T11:20:43;27.50;99.90
15638;DHT22;26604;53.596;10.042;2023-08-12T11:23:10;27.60;99.90
15638;DHT22;26604;53.596;10.042;2023-08-12T11:25:38;27.60;87.90
15638;DHT22;26604;53.596;10.042;2023-08-12T11:28:06;27.40;97.10
15638;DHT22;26604;53.596;10.042;2023-08-12T11:30:33;27.10;99.90
15638;DHT22;26604;53.596;10.042;2023-08-12T11:33:01;26.90;99.90
15638;DHT22;26604;53.596;10.042;2023-08-12T11:35:29;26.60;99.90
15638;DHT22;26604;53.596;10.042;2023-08-12T11:37:58;26.10;99.90
15638;DHT22;26604;53.596;10.042;2023-08-12T11:40:26;25.60;99.90
15638;DHT22;26604;53.596;10.042;2023-08-12T11:42:53;25.20;99.90
15638;DHT22;26604;53.596;10.042;2023-08-12T11:45:21;24.80;99.90
15638;DHT22;26604;53.596;10.042;2023-08-12T11:47:49;24.40;99.90
15638;DHT22;26604;53.596;10.042;2023-08-12T11:50:20;24.20;99.90
15638;DHT22;26604;53.596;10.042;2023-08-12T11:52:48;23.90;99.90
15638;DHT22;26604;53.596;10.042;2023-08-12T11:55:16;23.80;99.90
15638;DHT22;26604;53.596;10.042;2023-08-12T11:57:43;23.70;99.90
15638;DHT22;26604;53.596;10.042;2023-08-12T12:00:12;23.70;99.90
15638;DHT22;26604;53.596;10.042;2023-08-12T12:02:41;23.80;99.90
15638;DHT22;26604;53.596;10.042;2023-08-12T12:05:10;23.80;99.90
15638;DHT22;26604;53.596;10.042;2023-08-12T12:07:38;23.60;99.90
15638;DHT22;26604;53.596;10.042;2023-08-12T12:10:07;23.40;99.90
15638;DHT22;26604;53.596;10.042;2023-08-12T12:12:34;23.20;99.90
15638;DHT22;26604;53.596;10.042;2023-08-12T12:15:02;23.00;99.90
15638;DHT22;26604;53.596;10.042;2023-08-12T12:17:29;22.90;99.90
15638;DHT22;26604;53.596;10.042;2023-08-12T12:19:56;22.80;99.90
15638;DHT22;26604;53.596;10.042;2023-08-12T12:22:27;22.70;99.90
15638;DHT22;26604;53.596;10.042;2023-08-12T12:24:58;22.70;99.90
15638;DHT22;26604;53.596;10.042;2023-08-12T12:27:27;22.70;99.90
15638;DHT22;26604;53.596;10.042;2023-08-12T12:29:55;22.70;99.90
15638;DHT22;26604;53.596;10.042;2023-08-12T12:32:21;22.80;99.90
15638;DHT22;26604;53.596;10.042;2023-08-12T12:34:48;22.80;99.90
15638;DHT22;26604;53.596;10.042;2023-08-12T12:37:15;22.90;99.90
15638;DHT22;26604;53.596;10.042;2023-08-12T12:39:42;23.00;99.90
15638;DHT22;26604;53.596;10.042;2023-08-12T12:42:10;23.10;99.90
15638;DHT22;26604;53.596;10.042;2023-08-12T12:44:38;23.30;99.90
15638;DHT22;26604;53.596;10.042;2023-08-12T12:47:05;23.30;99.90
15638;DHT22;26604;53.596;10.042;2023-08-12T12:49:32;23.40;99.90
15638;DHT22;26604;53.596;10.042;2023-08-12T12:51:59;23.40;99.90
15638;DHT22;26604;53.596;10.042;2023-08-12T12:54:26;23.50;99.90
15638;DHT22;26604;53.596;10.042;2023-08-12T12:56:53;23.50;99.90
15638;DHT22;26604;53.596;10.042;2023-08-12T12:59:19;23.40;99.90
15638;DHT22;26604;53.596;10.042;2023-08-12T13:01:50;23.30;99.90
15638;DHT22;26604;53.596;10.042;2023-08-12T13:04:16;23.20;99.90
15638;DHT22;26604;53.596;10.042;2023-08-12T13:06:43;23.10;99.90
15638;DHT22;26604;53.596;10.042;2023-08-12T13:09:10;23.10;99.90
15638;DHT22;26604;53.596;10.042;2023-08-12T13:11:37;23.00;99.90
15638;DHT22;26604;53.596;10.042;2023-08-12T13:14:04;23.00;99.90
15638;DHT22;26604;53.596;10.042;2023-08-12T13:16:31;22.90;99.90
15638;DHT22;26604;53.596;10.042;2023-08-12T13:18:59;22.90;99.90
15638;DHT22;26604;53.596;10.042;2023-08-12T13:21:27;22.80;99.90
15638;DHT22;26604;53.596;10.042;2023-08-12T13:23:55;22.70;99.90
15638;DHT22;26604;53.596;10.042;2023-08-12T13:26:21;22.70;99.90
15638;DHT22;26604;53.596;10.042;2023-08-12T13:28:48;22.70;99.90
15638;DHT22;26604;53.596;10.042;2023-08-12T13:31:15;22.90;99.90
15638;DHT22;26604;53.596;10.042;2023-08-12T13:33:42;23.10;99.90
15638;DHT22;26604;53.596;10.042;2023-08-12T13:36:11;23.30;99.90
15638;DHT22;26604;53.596;10.042;2023-08-12T13:38:38;23.30;99.90
15638;DHT22;26604;53.596;10.042;2023-08-12T13:41:05;23.40;99.90
15638;DHT22;26604;53.596;10.042;2023-08-12T13:43:31;23.40;99.90
15638;DHT22;26604;53.596;10.042;2023-08-12T13:46:00;23.40;99.90
15638;DHT22;26604;53.596;10.042;2023-08-12T13:48:27;23.70;99.90
15638;DHT22;26604;53.596;10.042;2023-08-12T13:50:54;23.90;99.90
15638;DHT22;26604;53.596;10.042;2023-08-12T13:53:22;23.90;99.90
15638;DHT22;26604;53.596;10.042;2023-08-12T13:55:50;23.80;99.90
15638;DHT22;26604;53.596;10.042;2023-08-12T13:58:17;23.70;99.90
15638;DHT22;26604;53.596;10.042;2023-08-12T14:00:44;23.60;99.90
15638;DHT22;26604;53.596;10.042;2023-08-12T14:03:11;23.70;99.90
15638;DHT22;26604;53.596;10.042;2023-08-12T14:05:38;23.80;99.90
15638;DHT22;26604;53.596;10.042;2023-08-12T14:08:08;23.80;99.90
15638;DHT22;26604;53.596;10.042;2023-08-12T14:10:36;23.70;99.90
15638;DHT22;26604;53.596;10.042;2023-08-12T14:13:03;23.70;99.90
15638;DHT22;26604;53.596;10.042;2023-08-12T14:15:32;23.80;99.90
15638;DHT22;26604;53.596;10.042;2023-08-12T14:17:59;24.30;99.90
15638;DHT22;26604;53.596;10.042;2023-08-12T14:20:25;24.80;99.90
15638;DHT22;26604;53.596;10.042;2023-08-12T14:22:52;25.20;99.90
15638;DHT22;26604;53.596;10.042;2023-08-12T14:25:19;25.20;99.90
15638;DHT22;26604;53.596;10.042;2023-08-12T14:27:47;25.20;99.90
15638;DHT22;26604;53.596;10.042;2023-08-12T14:30:17;25.30;99.90
15638;DHT22;26604;53.596;10.042;2023-08-12T14:32:44;25.20;99.90
15638;DHT22;26604;53.596;10.042;2023-08-12T14:35:11;25.10;99.90
15638;DHT22;26604;53.596;10.042;2023-08-12T14:37:38;24.90;99.90
15638;DHT22;26604;53.596;10.042;2023-08-12T14:40:06;24.70;99.90
15638;DHT22;26604;53.596;10.042;2023-08-12T14:42:34;24.50;99.90
15638;DHT22;26604;53.596;10.042;2023-08-12T14:45:02;24.30;99.90
15638;DHT22;26604;53.596;10.042;2023-08-12T14:47:31;24.10;99.90
15638;DHT22;26604;53.596;10.042;2023-08-12T14:49:58;23.80;99.90
15638;DHT22;26604;53.596;10.042;2023-08-12T14:52:25;23.60;99.90
15638;DHT22;26604;53.596;10.042;2023-08-12T14:54:52;23.40;99.90
15638;DHT22;26604;53.596;10.042;2023-08-12T14:57:18;23.20;99.90
15638;DHT22;26604;53.596;10.042;2023-08-12T14:59:45;23.00;99.90
15638;DHT22;26604;53.596;10.042;2023-08-12T15:02:20;22.90;99.90
15638;DHT22;26604;53.596;10.042;2023-08-12T15:04:48;22.70;99.90
15638;DHT22;26604;53.596;10.042;2023-08-12T15:07:15;22.60;99.90
15638;DHT22;26604;53.596;10.042;2023-08-12T15:09:44;22.50;99.90
15638;DHT22;26604;53.596;10.042;2023-08-12T15:12:11;22.50;99.90
15638;DHT22;26604;53.596;10.042;2023-08-12T15:14:37;22.40;99.90
15638;DHT22;26604;53.596;10.042;2023-08-12T15:17:04;22.40;99.90
15638;DHT22;26604;53.596;10.042;2023-08-12T15:19:35;22.40;99.90